Vanderhoof, Canada
Current Conditions -  °F | °C
As of 12:00 PM on Sunday 21 Dec 2014 (Local Time) from CYXS Reporting Station
Few Clouds Few Clouds  
Wind Chill: 25°   Ceiling: Unl
Heat Index: 34°   Visibility: 9mi
Dew Point: 32°   Wind: 12mph
Humidity: 93%   Direction: 180°S
Pressure: 29.57"   Gusts: NA
Location:  54.02°N, 124.02°W
Report Text: CYXS 212000Z AUTO 18010KT 9SM FEW085 01/00 A2957 RMK SLP043
Loading
Personal Weather Stations






























Interactive Weather Map New forecast layout! Learn more

10-Day Weather Forecast

Advertisements
Track Severe Weather on mobile